Time,TemperatureF,DewpointF,PressureIn,WindDirection,WindDirectionDegrees,WindSpeedMPH,WindSpeedGustMPH,Humidity,HourlyPrecipIn,Conditions,Clouds,dailyrainin,SoftwareType,DateUTC
2013-03-28 00:00:00,46.6,31.3,28.75,South,180,3.7,3.7,55,0.00,CLR,,0.00,WeatherDisplay:10.37,2013-03-28 05:00:00,
2013-03-28 00:05:00,46.8,31.5,28.75,SW,225,4.6,4.6,55,0.00,CLR,,0.00,WeatherDisplay:10.37,2013-03-28 05:05:00,
2013-03-28 00:10:00,46.0,31.6,28.75,North,360,3.5,3.5,57,0.00,CLR,,0.00,WeatherDisplay:10.37,2013-03-28 05:10:00,
2013-03-28 00:15:00,46.0,31.6,28.75,East,90,3.5,3.5,57,0.00,CLR,,0.00,WeatherDisplay:10.37,2013-03-28 05:15:00,
2013-03-28 00:20:00,45.7,31.3,28.75,WNW,292,3.5,3.5,57,0.00,CLR,,0.00,WeatherDisplay:10.37,2013-03-28 05:20:00,
2013-03-28 00:25:00,45.7,31.3,28.75,WSW,248,3.5,3.5,57,0.00,CLR,,0.00,WeatherDisplay:10.37,2013-03-28 05:25:00,
2013-03-28 00:30:00,45.5,31.6,28.75,WSW,248,2.3,2.3,58,0.00,CLR,,0.00,WeatherDisplay:10.37,2013-03-28 05:30:00,
2013-03-28 00:35:00,45.5,31.6,28.75,WSW,248,2.3,2.3,58,0.00,CLR,,0.00,WeatherDisplay:10.37,2013-03-28 05:35:00,
2013-03-28 00:40:00,45.0,31.1,28.75,WSW,248,2.3,2.3,58,0.00,CLR,,0.00,WeatherDisplay:10.37,2013-03-28 05:40:00,
2013-03-28 00:45:00,44.6,31.1,28.75,SW,225,2.7,2.7,59,0.00,CLR,,0.00,WeatherDisplay:10.37,2013-03-28 05:45:00,
2013-03-28 00:50:00,44.2,31.2,28.75,SSW,202,2.7,2.7,60,0.00,CLR,,0.00,WeatherDisplay:10.37,2013-03-28 05:50:00,
2013-03-28 00:55:00,43.9,31.3,28.75,SSW,202,2.3,2.3,61,0.00,CLR,,0.00,WeatherDisplay:10.37,2013-03-28 05:55:00,
2013-03-28 01:00:00,43.7,31.1,28.75,SSW,202,2.3,2.3,61,0.00,CLR,,0.00,WeatherDisplay:10.37,2013-03-28 06:00:00,
2013-03-28 01:05:00,43.5,31.3,28.76,SW,225,3.5,3.5,62,0.00,CLR,,0.00,WeatherDisplay:10.37,2013-03-28 06:05:00,
2013-03-28 01:10:00,43.3,31.1,28.76,SSW,202,2.2,2.2,62,0.00,CLR,,0.00,WeatherDisplay:10.37,2013-03-28 06:10:00,
2013-03-28 01:15:00,43.3,31.1,28.75,West,270,2.3,2.3,62,0.00,CLR,,0.00,WeatherDisplay:10.37,2013-03-28 06:15:00,
2013-03-28 01:20:00,43.5,31.7,28.75,WNW,292,1.2,1.2,63,0.00,CLR,,0.00,WeatherDisplay:10.37,2013-03-28 06:20:00,
2013-03-28 01:25:00,43.5,31.7,28.76,South,180,1.2,0.0,63,0.00,CLR,,0.00,WeatherDisplay:10.37,2013-03-28 06:25:00,
2013-03-28 01:30:00,43.7,32.3,28.76,SW,232,1.0,2.0,64,0.00,CLR,,0.00,WeatherDisplay:10.37,2013-03-28 06:30:00,
2013-03-28 01:35:00,44.2,32.4,28.76,SSW,207,1.0,3.0,63,0.00,CLR,,0.00,WeatherDisplay:10.37,2013-03-28 06:35:00,
2013-03-28 01:40:00,44.2,32.8,28.76,SW,225,1.7,1.7,64,0.00,CLR,,0.00,WeatherDisplay:10.37,2013-03-28 06:40:00,
2013-03-28 01:45:00,44.8,32.2,28.76,SW,225,2.3,2.3,61,0.00,CLR,,0.00,WeatherDisplay:10.37,2013-03-28 06:45:00,
2013-03-28 01:50:00,44.8,33.0,28.75,SW,225,2.3,2.3,63,0.00,CLR,,0.00,WeatherDisplay:10.37,2013-03-28 06:50:00,
2013-03-28 01:55:00,44.8,33.0,28.75,ESE,112,1.7,1.7,63,0.00,CLR,,0.00,WeatherDisplay:10.37,2013-03-28 06:55:00,
2013-03-28 02:00:00,45.0,33.2,28.75,SSW,202,0.0,0.0,63,0.00,CLR,,0.00,WeatherDisplay:10.37,2013-03-28 07:00:00,
2013-03-28 02:05:00,45.0,33.2,28.75,SW,225,0.0,0.0,63,0.00,CLR,,0.00,WeatherDisplay:10.37,2013-03-28 07:05:00,
2013-03-28 02:10:00,44.8,33.0,28.75,South,180,0.0,0.0,63,0.00,CLR,,0.00,WeatherDisplay:10.37,2013-03-28 07:10:00,
2013-03-28 02:18:00,44.8,33.4,30.12,WNW,292,0.0,-999.0,64,-99.99,,,0.00,Acu-Link.com,2013-03-28 07:18:00,
2013-03-28 02:23:00,44.6,33.2,28.75,NNW,338,0.0,0.0,64,0.00,CLR,,0.00,WeatherDisplay:10.37,2013-03-28 07:23:00,
2013-03-28 02:33:00,44.4,33.0,28.75,SSW,202,1.1,1.1,64,0.00,CLR,,0.00,WeatherDisplay:10.37,2013-03-28 07:33:00,
2013-03-28 02:38:00,44.4,33.4,28.75,SW,225,0.0,0.0,65,0.00,CLR,,0.00,WeatherDisplay:10.37,2013-03-28 07:38:00,
2013-03-28 02:43:00,44.6,33.2,28.75,SSW,202,0.0,0.0,64,0.00,CLR,,0.00,WeatherDisplay:10.37,2013-03-28 07:43:00,
2013-03-28 02:48:00,44.8,33.0,28.75,WSW,248,0.0,0.0,63,0.00,CLR,,0.00,WeatherDisplay:10.37,2013-03-28 07:48:00,
2013-03-28 02:53:00,44.8,32.6,28.75,North,360,2.3,0.0,62,0.00,CLR,,0.00,WeatherDisplay:10.37,2013-03-28 07:53:00,
2013-03-28 02:58:00,44.8,33.7,28.75,West,270,0.0,0.0,65,0.00,CLR,,0.00,WeatherDisplay:10.37,2013-03-28 07:58:00,
2013-03-28 03:03:00,44.8,33.7,28.75,South,180,2.7,2.7,65,0.00,CLR,,0.00,WeatherDisplay:10.37,2013-03-28 08:03:00,
2013-03-28 03:08:00,45.1,32.8,28.75,South,180,1.2,1.2,62,0.00,CLR,,0.00,WeatherDisplay:10.37,2013-03-28 08:08:00,
2013-03-28 03:13:00,45.7,33.0,28.75,SSW,202,2.3,2.3,61,0.00,CLR,,0.00,WeatherDisplay:10.37,2013-03-28 08:13:00,
2013-03-28 03:18:00,45.9,33.2,28.74,WSW,248,2.2,2.2,61,0.00,CLR,,0.00,WeatherDisplay:10.37,2013-03-28 08:18:00,
2013-03-28 03:23:00,45.9,33.2,28.74,WSW,248,1.7,1.7,61,0.00,CLR,,0.00,WeatherDisplay:10.37,2013-03-28 08:23:00,
2013-03-28 03:28:00,46.0,32.9,28.74,South,180,3.5,3.5,60,0.00,CLR,,0.00,WeatherDisplay:10.37,2013-03-28 08:28:00,
2013-03-28 03:33:00,46.4,33.3,28.74,West,270,2.3,0.0,60,0.00,CLR,,0.00,WeatherDisplay:10.37,2013-03-28 08:33:00,
2013-03-28 03:38:00,46.4,33.3,28.75,ENE,68,1.7,1.7,60,0.00,CLR,,0.00,WeatherDisplay:10.37,2013-03-28 08:38:00,
2013-03-28 03:43:00,46.2,33.9,28.75,West,270,0.0,0.0,62,0.00,CLR,,0.00,WeatherDisplay:10.37,2013-03-28 08:43:00,
2013-03-28 03:48:00,46.2,33.5,28.74,WSW,248,0.0,0.0,61,0.00,CLR,,0.00,WeatherDisplay:10.37,2013-03-28 08:48:00,
2013-03-28 03:53:00,46.0,34.1,28.74,SSW,202,2.2,2.2,63,0.00,CLR,,0.00,WeatherDisplay:10.37,2013-03-28 08:53:00,
2013-03-28 03:58:00,46.0,33.3,28.74,NNW,338,4.7,4.7,61,0.00,CLR,,0.00,WeatherDisplay:10.37,2013-03-28 08:58:00,
2013-03-28 04:03:00,46.6,33.4,28.74,WSW,248,3.5,3.5,60,0.00,CLR,,0.00,WeatherDisplay:10.37,2013-03-28 09:03:00,
2013-03-28 04:08:00,46.6,33.4,28.74,SW,225,2.7,2.7,60,0.00,CLR,,0.00,WeatherDisplay:10.37,2013-03-28 09:08:00,
2013-03-28 04:13:00,46.8,33.2,28.74,SSE,158,2.7,2.7,59,0.00,CLR,,0.00,WeatherDisplay:10.37,2013-03-28 09:13:00,
2013-03-28 04:18:00,46.9,33.3,28.74,SW,225,3.5,3.5,59,0.00,CLR,,0.00,WeatherDisplay:10.37,2013-03-28 09:18:00,
2013-03-28 04:23:00,46.9,33.7,28.74,South,180,2.3,2.5,60,0.00,CLR,,0.00,WeatherDisplay:10.37,2013-03-28 09:23:00,
2013-03-28 04:28:00,46.9,33.3,28.74,SSW,202,3.7,3.7,59,0.00,CLR,,0.00,WeatherDisplay:10.37,2013-03-28 09:28:00,
2013-03-28 04:33:00,46.9,33.3,28.74,East,90,3.5,3.5,59,0.00,CLR,,0.00,WeatherDisplay:10.37,2013-03-28 09:33:00,
2013-03-28 04:38:00,46.9,33.7,28.74,NW,315,4.6,4.6,60,0.00,CLR,,0.00,WeatherDisplay:10.37,2013-03-28 09:38:00,
2013-03-28 04:43:00,46.9,33.7,28.74,West,270,3.5,3.6,60,0.00,CLR,,0.00,WeatherDisplay:10.37,2013-03-28 09:43:00,
2013-03-28 04:48:00,46.9,34.1,28.74,SSW,202,3.5,3.5,61,0.00,CLR,,0.00,WeatherDisplay:10.37,2013-03-28 09:48:00,
2013-03-28 04:53:00,46.9,34.1,28.74,SSW,202,3.5,3.5,61,0.00,CLR,,0.00,WeatherDisplay:10.37,2013-03-28 09:53:00,
2013-03-28 04:58:00,46.9,34.1,28.74,SW,225,2.3,2.5,61,0.00,CLR,,0.00,WeatherDisplay:10.37,2013-03-28 09:58:00,
2013-03-28 05:03:00,46.8,34.0,28.74,WNW,292,3.5,3.5,61,0.00,CLR,,0.00,WeatherDisplay:10.37,2013-03-28 10:03:00,
2013-03-28 05:08:00,46.8,34.0,28.74,South,180,2.7,2.7,61,0.00,CLR,,0.00,WeatherDisplay:10.37,2013-03-28 10:08:00,
2013-03-28 05:13:00,46.8,34.0,28.74,West,270,2.7,2.7,61,0.00,CLR,,0.00,WeatherDisplay:10.37,2013-03-28 10:13:00,
2013-03-28 05:18:00,46.8,34.0,28.74,SE,135,2.7,2.7,61,0.00,CLR,,0.00,WeatherDisplay:10.37,2013-03-28 10:18:00,
2013-03-28 05:23:00,46.8,34.0,28.74,West,270,3.2,3.2,61,0.00,CLR,,0.00,WeatherDisplay:10.37,2013-03-28 10:23:00,
2013-03-28 05:28:00,46.8,34.0,28.73,North,360,3.5,3.5,61,0.00,CLR,,0.00,WeatherDisplay:10.37,2013-03-28 10:28:00,
2013-03-28 05:33:00,46.8,34.0,28.73,SSW,202,3.5,3.5,61,0.00,CLR,,0.00,WeatherDisplay:10.37,2013-03-28 10:33:00,
2013-03-28 05:38:00,46.8,34.0,28.74,SW,225,2.3,2.5,61,0.00,CLR,,0.00,WeatherDisplay:10.37,2013-03-28 10:38:00,
2013-03-28 05:43:00,46.9,34.1,28.74,SSE,158,4.6,4.6,61,0.00,CLR,,0.00,WeatherDisplay:10.37,2013-03-28 10:43:00,
2013-03-28 05:48:00,46.8,34.5,28.74,NE,45,2.3,2.5,62,0.00,CLR,,0.00,WeatherDisplay:10.37,2013-03-28 10:48:00,
2013-03-28 05:53:00,46.8,34.0,28.74,SSE,158,3.5,3.5,61,0.00,CLR,,0.00,WeatherDisplay:10.37,2013-03-28 10:53:00,
2013-03-28 05:58:00,46.9,34.1,28.74,West,270,2.7,2.7,61,0.00,CLR,,0.00,WeatherDisplay:10.37,2013-03-28 10:58:00,
2013-03-28 06:03:00,46.9,34.1,28.74,ENE,68,3.7,3.7,61,0.00,CLR,,0.00,WeatherDisplay:10.37,2013-03-28 11:03:00,
2013-03-28 06:08:00,46.8,34.5,28.74,West,270,3.2,3.2,62,0.00,CLR,,0.00,WeatherDisplay:10.37,2013-03-28 11:08:00,
2013-03-28 06:13:00,46.8,34.0,28.74,ESE,112,3.5,3.5,61,0.00,CLR,,0.00,WeatherDisplay:10.37,2013-03-28 11:13:00,
2013-03-28 06:18:00,46.8,34.0,28.74,WSW,248,3.5,3.5,61,0.00,CLR,,0.00,WeatherDisplay:10.37,2013-03-28 11:18:00,
2013-03-28 06:23:00,46.8,34.0,28.74,SW,225,2.7,2.7,61,0.00,CLR,,0.00,WeatherDisplay:10.37,2013-03-28 11:23:00,
2013-03-28 06:28:00,46.8,34.0,28.74,SSE,158,3.2,3.2,61,0.00,CLR,,0.00,WeatherDisplay:10.37,2013-03-28 11:28:00,
2013-03-28 06:33:00,46.9,34.1,28.74,WSW,248,3.5,3.5,61,0.00,CLR,,0.00,WeatherDisplay:10.37,2013-03-28 11:33:00,
2013-03-28 06:38:00,46.9,34.1,28.74,SW,225,2.3,2.3,61,0.00,CLR,,0.00,WeatherDisplay:10.37,2013-03-28 11:38:00,
2013-03-28 06:43:00,46.9,34.1,28.74,South,180,3.5,3.5,61,0.00,CLR,,0.00,WeatherDisplay:10.37,2013-03-28 11:43:00,
2013-03-28 06:48:00,46.9,34.1,28.74,West,270,2.7,2.7,61,0.00,CLR,,0.00,WeatherDisplay:10.37,2013-03-28 11:48:00,
2013-03-28 06:53:00,46.9,34.1,28.74,SSE,158,3.2,3.2,61,0.00,CLR,,0.00,WeatherDisplay:10.37,2013-03-28 11:53:00,
2013-03-28 06:58:00,47.1,34.3,28.74,South,180,3.5,3.5,61,0.00,CLR,,0.00,WeatherDisplay:10.37,2013-03-28 11:58:00,
2013-03-28 07:03:00,47.1,34.3,28.75,West,270,2.3,2.3,61,0.00,CLR,,0.00,WeatherDisplay:10.37,2013-03-28 12:03:00,
2013-03-28 07:08:00,47.1,34.3,28.75,WSW,248,3.5,3.5,61,0.00,CLR,,0.00,WeatherDisplay:10.37,2013-03-28 12:08:00,
2013-03-28 07:13:00,47.1,34.3,28.75,SE,135,3.5,3.5,61,0.00,CLR,,0.00,WeatherDisplay:10.37,2013-03-28 12:13:00,
2013-03-28 07:18:00,47.1,34.3,28.75,North,360,2.7,2.7,61,0.00,CLR,,0.00,WeatherDisplay:10.37,2013-03-28 12:18:00,
2013-03-28 07:23:00,47.1,34.3,28.75,South,180,3.5,3.5,61,0.00,CLR,,0.00,WeatherDisplay:10.37,2013-03-28 12:23:00,
2013-03-28 07:28:00,47.1,34.3,28.75,WNW,292,2.7,2.7,61,0.00,CLR,,0.00,WeatherDisplay:10.37,2013-03-28 12:28:00,
2013-03-28 07:33:00,47.1,34.3,28.75,North,360,3.5,3.5,61,0.00,CLR,,0.00,WeatherDisplay:10.37,2013-03-28 12:33:00,
2013-03-28 07:38:00,47.3,34.5,28.75,SSW,202,2.7,2.8,61,0.00,CLR,,0.00,WeatherDisplay:10.37,2013-03-28 12:38:00,
2013-03-28 07:43:00,47.3,35.3,28.75,West,270,2.3,2.3,63,0.00,CLR,,0.00,WeatherDisplay:10.37,2013-03-28 12:43:00,
2013-03-28 07:48:00,47.3,34.9,28.75,WSW,248,2.3,2.3,62,0.00,CLR,,0.00,WeatherDisplay:10.37,2013-03-28 12:48:00,
2013-03-28 07:53:00,47.3,35.3,28.75,West,270,2.3,2.3,63,0.00,CLR,,0.00,WeatherDisplay:10.37,2013-03-28 12:53:00,
2013-03-28 07:58:00,47.3,35.3,28.75,SSW,202,2.3,2.3,63,0.00,CLR,,0.00,WeatherDisplay:10.37,2013-03-28 12:58:00,
2013-03-28 08:03:00,47.3,35.7,28.76,SSW,202,1.7,1.7,64,0.00,CLR,,0.00,WeatherDisplay:10.37,2013-03-28 13:03:00,
2013-03-28 08:08:00,47.3,36.1,28.76,West,270,2.3,2.3,65,0.00,CLR,,0.00,WeatherDisplay:10.37,2013-03-28 13:08:00,
2013-03-28 08:13:00,47.8,35.4,28.76,East,90,4.6,4.6,62,0.00,CLR,,0.00,WeatherDisplay:10.37,2013-03-28 13:13:00,
2013-03-28 08:18:00,48.0,36.0,28.76,SW,225,3.7,3.7,63,0.00,CLR,,0.00,WeatherDisplay:10.37,2013-03-28 13:18:00,
2013-03-28 08:23:00,48.6,34.9,28.76,NNW,338,4.2,4.2,59,0.00,CLR,,0.00,WeatherDisplay:10.37,2013-03-28 13:23:00,
2013-03-28 08:28:00,49.1,34.9,28.76,SW,225,4.6,4.6,58,0.00,CLR,,0.00,WeatherDisplay:10.37,2013-03-28 13:28:00,
2013-03-28 08:33:00,49.6,35.4,28.76,SW,225,4.6,4.6,58,0.00,CLR,,0.00,WeatherDisplay:10.37,2013-03-28 13:33:00,
2013-03-28 08:38:00,49.8,36.0,28.76,WSW,248,3.5,3.5,59,0.00,CLR,,0.00,WeatherDisplay:10.37,2013-03-28 13:38:00,
2013-03-28 08:43:00,50.0,35.4,28.76,SW,225,3.7,3.7,57,0.00,CLR,,0.00,WeatherDisplay:10.37,2013-03-28 13:43:00,
2013-03-28 08:48:00,50.4,35.7,28.76,SSW,202,3.5,3.5,57,0.00,CLR,,0.00,WeatherDisplay:10.37,2013-03-28 13:48:00,
2013-03-28 08:53:00,50.9,35.3,28.77,ENE,68,5.8,5.8,55,0.00,CLR,,0.00,WeatherDisplay:10.37,2013-03-28 13:53:00,
2013-03-28 08:58:00,51.4,35.3,28.77,South,180,5.8,5.8,54,0.00,CLR,,0.00,WeatherDisplay:10.37,2013-03-28 13:58:00,
2013-03-28 09:03:00,52.0,35.4,28.77,SSW,202,6.9,6.9,53,0.00,CLR,,0.00,WeatherDisplay:10.37,2013-03-28 14:03:00,
2013-03-28 09:08:00,52.5,35.8,28.77,SW,225,6.3,6.3,53,0.00,CLR,,0.00,WeatherDisplay:10.37,2013-03-28 14:08:00,
2013-03-28 09:13:00,53.2,36.5,28.77,South,180,5.8,5.8,53,0.00,CLR,,0.00,WeatherDisplay:10.37,2013-03-28 14:13:00,
2013-03-28 09:18:00,54.0,36.8,28.77,SW,225,4.6,4.6,52,0.00,CLR,,0.00,WeatherDisplay:10.37,2013-03-28 14:18:00,
2013-03-28 09:23:00,54.3,37.0,28.77,ESE,112,6.9,6.9,52,0.00,CLR,,0.00,WeatherDisplay:10.37,2013-03-28 14:23:00,
2013-03-28 09:28:00,55.0,37.2,28.77,West,270,8.1,8.1,51,0.00,CLR,,0.00,WeatherDisplay:10.37,2013-03-28 14:28:00,
2013-03-28 09:33:00,55.4,37.6,28.77,SSW,202,10.4,10.4,51,0.00,CLR,,0.00,WeatherDisplay:10.37,2013-03-28 14:33:00,
2013-03-28 09:38:00,56.7,38.2,30.14,SW,225,4.3,-999.0,50,-99.99,,,0.00,Acu-Link.com,2013-03-28 14:38:00,
2013-03-28 09:43:00,56.8,38.9,28.77,South,180,10.4,10.4,51,0.00,CLR,,0.00,WeatherDisplay:10.37,2013-03-28 14:43:00,
2013-03-28 09:48:00,57.2,38.7,28.77,South,180,11.5,11.5,50,0.00,CLR,,0.00,WeatherDisplay:10.37,2013-03-28 14:48:00,
2013-03-28 09:53:00,57.2,38.7,28.77,SSW,202,8.1,8.1,50,0.00,CLR,,0.00,WeatherDisplay:10.37,2013-03-28 14:53:00,
2013-03-28 09:58:00,57.9,39.9,28.77,ESE,112,10.4,10.4,51,0.00,CLR,,0.00,WeatherDisplay:10.37,2013-03-28 14:58:00,
2013-03-28 10:03:00,57.9,39.9,28.76,SW,225,11.5,11.5,51,0.00,CLR,,0.00,WeatherDisplay:10.37,2013-03-28 15:03:00,
2013-03-28 10:08:00,58.5,40.9,28.76,WSW,248,9.2,9.2,52,0.00,CLR,,0.00,WeatherDisplay:10.37,2013-03-28 15:08:00,
2013-03-28 10:13:00,58.3,40.2,28.77,South,180,8.3,8.3,51,0.00,CLR,,0.00,WeatherDisplay:10.37,2013-03-28 15:13:00,
2013-03-28 10:18:00,59.4,41.3,28.77,South,180,6.3,6.3,51,0.00,CLR,,0.00,WeatherDisplay:10.37,2013-03-28 15:18:00,
2013-03-28 10:23:00,59.5,40.8,28.77,West,270,6.9,6.9,50,0.00,CLR,,0.00,WeatherDisplay:10.37,2013-03-28 15:23:00,
2013-03-28 10:28:00,60.3,42.1,28.77,SSW,202,9.2,9.2,51,0.00,CLR,,0.00,WeatherDisplay:10.37,2013-03-28 15:28:00,
2013-03-28 10:33:00,60.8,42.5,28.77,WSW,248,6.9,6.9,51,0.00,CLR,,0.00,WeatherDisplay:10.37,2013-03-28 15:33:00,
2013-03-28 10:38:00,61.5,43.2,28.77,SSW,202,6.9,6.9,51,0.00,CLR,,0.00,WeatherDisplay:10.37,2013-03-28 15:38:00,
2013-03-28 10:43:00,61.7,42.9,28.77,SW,225,8.8,8.8,50,0.00,CLR,,0.00,WeatherDisplay:10.37,2013-03-28 15:43:00,
2013-03-28 10:48:00,61.7,42.9,28.77,South,180,9.2,9.2,50,0.00,CLR,,0.00,WeatherDisplay:10.37,2013-03-28 15:48:00,
2013-03-28 10:53:00,62.1,44.3,28.77,SSE,158,10.4,10.4,52,0.00,CLR,,0.00,WeatherDisplay:10.37,2013-03-28 15:53:00,
2013-03-28 11:00:00,62.7,44.3,28.77,SSW,206,6.0,8.0,51,0.00,CLR,,0.00,WeatherDisplay:10.37,2013-03-28 16:00:00,
2013-03-28 11:05:00,62.8,44.9,28.77,South,180,9.2,9.2,52,0.00,CLR,,0.00,WeatherDisplay:10.37,2013-03-28 16:05:00,
2013-03-28 11:10:00,62.4,44.5,28.77,East,90,8.1,8.1,52,0.00,CLR,,0.00,WeatherDisplay:10.37,2013-03-28 16:10:00,
2013-03-28 11:15:00,62.6,44.7,28.77,WSW,248,6.9,7.8,52,0.00,CLR,,0.00,WeatherDisplay:10.37,2013-03-28 16:15:00,
2013-03-28 11:20:00,62.4,45.0,28.77,SE,135,10.4,10.4,53,0.00,CLR,,0.00,WeatherDisplay:10.37,2013-03-28 16:20:00,
2013-03-28 11:25:00,62.6,45.7,28.77,SW,225,5.8,5.8,54,0.00,CLR,,0.00,WeatherDisplay:10.37,2013-03-28 16:25:00,
2013-03-28 11:30:00,63.7,46.2,28.77,East,90,6.9,7.8,53,0.00,CLR,,0.00,WeatherDisplay:10.37,2013-03-28 16:30:00,
2013-03-28 11:35:00,62.8,45.9,28.77,ENE,68,5.8,5.8,54,0.00,CLR,,0.00,WeatherDisplay:10.37,2013-03-28 16:35:00,
2013-03-28 11:41:00,63.7,46.2,30.14,ESE,112,13.0,-999.0,53,-99.99,,,0.00,Acu-Link.com,2013-03-28 16:41:00,
2013-03-28 11:46:00,63.7,47.2,28.77,WSW,248,9.2,9.2,55,0.00,CLR,,0.00,WeatherDisplay:10.37,2013-03-28 16:46:00,
2013-03-28 11:51:00,64.8,48.2,28.77,SSE,158,10.4,10.4,55,0.00,CLR,,0.00,WeatherDisplay:10.37,2013-03-28 16:51:00,
2013-03-28 11:56:00,63.0,47.5,28.77,ENE,68,9.2,9.2,57,0.00,CLR,,0.00,WeatherDisplay:10.37,2013-03-28 16:56:00,
2013-03-28 12:01:00,63.5,48.0,28.77,ESE,112,10.4,10.4,57,0.00,CLR,,0.00,WeatherDisplay:10.37,2013-03-28 17:01:00,
2013-03-28 12:06:00,64.6,48.1,28.77,SSE,158,8.1,8.1,55,0.00,CLR,,0.00,WeatherDisplay:10.37,2013-03-28 17:06:00,
2013-03-28 12:12:00,66.4,49.2,28.77,South,180,9.2,9.2,54,0.00,CLR,,0.00,WeatherDisplay:10.37,2013-03-28 17:12:00,
2013-03-28 12:17:00,66.2,49.1,28.76,ESE,112,6.9,6.9,54,0.00,CLR,,0.00,WeatherDisplay:10.37,2013-03-28 17:17:00,
2013-03-28 12:22:00,67.6,49.9,28.76,SSW,202,9.2,9.2,53,0.00,CLR,,0.00,WeatherDisplay:10.37,2013-03-28 17:22:00,
2013-03-28 12:27:00,65.1,48.0,28.76,SSW,202,12.7,12.7,54,0.00,CLR,,0.00,WeatherDisplay:10.37,2013-03-28 17:27:00,
2013-03-28 12:32:00,66.2,49.6,28.76,South,180,6.9,6.9,55,0.00,CLR,,0.00,WeatherDisplay:10.37,2013-03-28 17:32:00,
2013-03-28 12:37:00,66.4,48.7,28.76,SW,225,11.5,11.5,53,0.00,CLR,,0.00,WeatherDisplay:10.37,2013-03-28 17:37:00,
2013-03-28 12:43:00,66.6,49.4,28.76,WSW,248,9.2,9.2,54,0.00,CLR,,0.00,WeatherDisplay:10.37,2013-03-28 17:43:00,
2013-03-28 12:48:00,67.1,49.9,28.76,SSW,202,8.1,8.1,54,0.00,CLR,,0.00,WeatherDisplay:10.37,2013-03-28 17:48:00,
2013-03-28 12:53:00,68.2,49.9,28.76,SE,135,9.2,9.2,52,0.00,CLR,,0.00,WeatherDisplay:10.37,2013-03-28 17:53:00,
2013-03-28 12:58:00,68.2,49.9,28.76,South,180,8.8,8.8,52,0.00,CLR,,0.00,WeatherDisplay:10.37,2013-03-28 17:58:00,
2013-03-28 13:03:00,68.2,49.9,28.75,SSE,158,11.5,11.5,52,0.00,CLR,,0.00,WeatherDisplay:10.37,2013-03-28 18:03:00,
2013-03-28 13:08:00,66.7,49.0,28.75,SW,225,12.7,12.7,53,0.00,CLR,,0.00,WeatherDisplay:10.37,2013-03-28 18:08:00,
2013-03-28 13:13:00,66.2,48.6,28.75,South,180,10.4,10.4,53,0.00,CLR,,0.00,WeatherDisplay:10.37,2013-03-28 18:13:00,
2013-03-28 13:18:00,67.3,50.1,28.75,ESE,112,7.3,7.3,54,0.00,CLR,,0.00,WeatherDisplay:10.37,2013-03-28 18:18:00,
2013-03-28 13:23:00,67.8,49.5,28.75,SSW,202,9.2,9.2,52,0.00,CLR,,0.00,WeatherDisplay:10.37,2013-03-28 18:23:00,
2013-03-28 13:28:00,67.8,49.5,28.74,SSW,202,5.8,5.8,52,0.00,CLR,,0.00,WeatherDisplay:10.37,2013-03-28 18:28:00,
2013-03-28 13:33:00,68.5,49.7,28.74,South,180,9.2,9.2,51,0.00,CLR,,0.00,WeatherDisplay:10.37,2013-03-28 18:33:00,
2013-03-28 13:38:00,68.2,49.4,28.73,SE,135,9.2,9.2,51,0.00,CLR,,0.00,WeatherDisplay:10.37,2013-03-28 18:38:00,
2013-03-28 13:45:00,68.2,49.9,28.73,SSW,201,8.0,12.0,52,0.00,CLR,,0.00,WeatherDisplay:10.37,2013-03-28 18:45:00,
2013-03-28 13:50:00,68.7,49.8,28.73,South,178,6.0,8.0,51,0.00,CLR,,0.00,WeatherDisplay:10.37,2013-03-28 18:50:00,
2013-03-28 13:58:00,68.7,49.8,28.73,SSE,158,6.3,6.3,51,0.00,CLR,,0.00,WeatherDisplay:10.37,2013-03-28 18:58:00,
2013-03-28 14:03:00,68.7,49.3,28.74,SW,225,12.7,12.7,50,0.00,CLR,,0.00,WeatherDisplay:10.37,2013-03-28 19:03:00,
2013-03-28 14:08:00,69.8,50.3,28.74,NNE,22,5.8,5.8,50,0.00,CLR,,0.00,WeatherDisplay:10.37,2013-03-28 19:08:00,
2013-03-28 14:13:00,70.0,51.0,28.74,ENE,68,4.6,4.6,51,0.00,CLR,,0.00,WeatherDisplay:10.37,2013-03-28 19:13:00,
2013-03-28 14:18:00,68.7,49.8,28.74,SSE,158,12.4,12.4,51,0.00,CLR,,0.00,WeatherDisplay:10.37,2013-03-28 19:18:00,
2013-03-28 14:23:00,68.7,49.8,28.74,SSW,202,12.7,12.7,51,0.00,CLR,,0.00,WeatherDisplay:10.37,2013-03-28 19:23:00,
2013-03-28 14:28:00,68.9,50.0,28.72,SSW,202,9.2,9.2,51,0.00,CLR,,0.00,WeatherDisplay:10.37,2013-03-28 19:28:00,
2013-03-28 14:33:00,69.6,50.7,28.72,NNE,22,4.6,4.6,51,0.00,CLR,,0.00,WeatherDisplay:10.37,2013-03-28 19:33:00,
2013-03-28 14:38:00,69.1,50.2,28.72,NE,45,8.1,8.1,51,0.00,CLR,,0.00,WeatherDisplay:10.37,2013-03-28 19:38:00,
2013-03-28 14:43:00,69.6,50.1,28.72,SSW,202,10.4,10.4,50,0.00,CLR,,0.00,WeatherDisplay:10.37,2013-03-28 19:43:00,
2013-03-28 14:48:00,69.8,49.8,28.72,WSW,248,8.1,8.1,49,0.00,CLR,,0.00,WeatherDisplay:10.37,2013-03-28 19:48:00,
2013-03-28 14:53:00,69.1,50.2,28.71,SSW,202,5.8,5.8,51,0.00,CLR,,0.00,WeatherDisplay:10.37,2013-03-28 19:53:00,
2013-03-28 14:58:00,71.2,51.1,28.71,WSW,248,5.8,5.8,49,0.00,CLR,,0.00,WeatherDisplay:10.37,2013-03-28 19:58:00,
2013-03-28 15:03:00,70.7,50.0,28.71,SSW,202,9.2,9.2,48,0.00,CLR,,0.00,WeatherDisplay:10.37,2013-03-28 20:03:00,
2013-03-28 15:08:00,70.0,50.5,28.71,WSW,248,8.1,8.1,50,0.00,CLR,,0.00,WeatherDisplay:10.37,2013-03-28 20:08:00,
2013-03-28 15:13:00,69.8,49.8,28.70,SSE,158,10.4,10.4,49,0.00,CLR,,0.00,WeatherDisplay:10.37,2013-03-28 20:13:00,
2013-03-28 15:18:00,70.7,50.0,28.70,SE,135,8.1,8.1,48,0.00,CLR,,0.00,WeatherDisplay:10.37,2013-03-28 20:18:00,
2013-03-28 15:23:00,70.2,49.6,28.70,South,180,10.4,10.4,48,0.00,CLR,,0.00,WeatherDisplay:10.37,2013-03-28 20:23:00,
2013-03-28 15:28:00,70.9,50.2,28.70,NW,315,9.2,9.2,48,0.00,CLR,,0.00,WeatherDisplay:10.37,2013-03-28 20:28:00,
2013-03-28 15:33:00,70.9,50.2,28.70,SSW,202,10.4,10.4,48,0.00,CLR,,0.00,WeatherDisplay:10.37,2013-03-28 20:33:00,
2013-03-28 15:38:00,69.4,49.4,28.70,South,180,6.9,6.9,49,0.00,CLR,,0.00,WeatherDisplay:10.37,2013-03-28 20:38:00,
2013-03-28 15:43:00,69.1,49.7,28.70,South,180,5.8,5.8,50,0.00,CLR,,0.00,WeatherDisplay:10.37,2013-03-28 20:43:00,
2013-03-28 15:49:00,69.8,49.8,28.70,West,270,9.2,9.2,49,0.00,CLR,,0.00,WeatherDisplay:10.37,2013-03-28 20:49:00,
2013-03-28 15:55:00,70.0,50.0,28.69,South,180,7.3,7.3,49,0.00,CLR,,0.00,WeatherDisplay:10.37,2013-03-28 20:55:00,
2013-03-28 16:00:00,70.9,50.2,28.69,South,180,8.3,8.3,48,0.00,CLR,,0.00,WeatherDisplay:10.37,2013-03-28 21:00:00,
2013-03-28 16:05:00,70.5,49.9,28.69,WSW,248,10.4,10.4,48,0.00,CLR,,0.00,WeatherDisplay:10.37,2013-03-28 21:05:00,
2013-03-28 16:10:00,68.4,48.5,28.69,SSW,202,11.5,11.5,49,0.00,CLR,,0.00,WeatherDisplay:10.37,2013-03-28 21:10:00,
2013-03-28 16:15:00,68.9,48.9,28.69,West,270,10.4,10.4,49,0.00,CLR,,0.00,WeatherDisplay:10.37,2013-03-28 21:15:00,
2013-03-28 16:20:00,68.0,48.1,28.69,SW,225,10.4,10.4,49,0.00,CLR,,0.00,WeatherDisplay:10.37,2013-03-28 21:20:00,
2013-03-28 16:25:00,66.7,47.5,28.69,East,90,10.4,10.4,50,0.00,CLR,,0.00,WeatherDisplay:10.37,2013-03-28 21:25:00,
2013-03-28 16:30:00,67.1,48.4,28.69,SW,225,9.2,9.2,51,0.00,CLR,,0.00,WeatherDisplay:10.37,2013-03-28 21:30:00,
2013-03-28 16:35:00,66.4,47.7,28.69,SE,135,9.2,9.2,51,0.00,CLR,,0.00,WeatherDisplay:10.37,2013-03-28 21:35:00,
2013-03-28 16:40:00,66.6,48.4,28.70,SW,225,6.9,6.9,52,0.00,CLR,,0.00,WeatherDisplay:10.37,2013-03-28 21:40:00,
2013-03-28 16:45:00,65.8,48.2,28.70,SSW,202,6.3,6.3,53,0.00,CLR,,0.00,WeatherDisplay:10.37,2013-03-28 21:45:00,
2013-03-28 16:50:00,65.7,48.1,28.69,SSE,158,8.1,8.1,53,0.00,CLR,,0.00,WeatherDisplay:10.37,2013-03-28 21:50:00,
2013-03-28 16:55:00,65.7,48.1,28.69,North,360,6.9,6.9,53,0.00,CLR,,0.00,WeatherDisplay:10.37,2013-03-28 21:55:00,
2013-03-28 17:00:00,65.7,48.1,28.69,SW,225,6.9,6.9,53,0.00,CLR,,0.00,WeatherDisplay:10.37,2013-03-28 22:00:00,
2013-03-28 17:05:00,66.7,49.0,28.69,SW,225,5.8,5.8,53,0.00,CLR,,0.00,WeatherDisplay:10.37,2013-03-28 22:05:00,
2013-03-28 17:10:00,68.2,49.9,28.69,SW,225,6.8,6.8,52,0.00,CLR,,0.00,WeatherDisplay:10.37,2013-03-28 22:10:00,
2013-03-28 17:15:00,68.2,49.4,28.69,SSE,158,9.9,9.9,51,0.00,CLR,,0.00,WeatherDisplay:10.37,2013-03-28 22:15:00,
2013-03-28 17:20:00,67.6,49.3,28.69,WSW,248,9.2,9.2,52,0.00,CLR,,0.00,WeatherDisplay:10.37,2013-03-28 22:20:00,
2013-03-28 17:25:00,67.6,49.3,28.69,NW,315,6.9,6.9,52,0.00,CLR,,0.00,WeatherDisplay:10.37,2013-03-28 22:25:00,
2013-03-28 17:30:00,67.6,49.3,28.69,SSW,202,8.1,8.1,52,0.00,CLR,,0.00,WeatherDisplay:10.37,2013-03-28 22:30:00,
2013-03-28 17:35:00,67.3,50.1,28.69,WSW,248,5.8,5.8,54,0.00,CLR,,0.00,WeatherDisplay:10.37,2013-03-28 22:35:00,
2013-03-28 17:40:00,66.7,50.0,28.68,West,270,6.9,6.9,55,0.00,CLR,,0.00,WeatherDisplay:10.37,2013-03-28 22:40:00,
2013-03-28 17:45:00,66.7,50.0,28.68,West,270,8.1,8.1,55,0.00,CLR,,0.00,WeatherDisplay:10.37,2013-03-28 22:45:00,
2013-03-28 17:50:00,66.6,49.9,28.68,WSW,248,6.9,6.9,55,0.00,CLR,,0.00,WeatherDisplay:10.37,2013-03-28 22:50:00,
2013-03-28 17:55:00,66.9,50.2,28.68,SW,225,6.9,6.9,55,0.00,CLR,,0.00,WeatherDisplay:10.37,2013-03-28 22:55:00,
2013-03-28 18:00:00,66.7,50.5,28.68,SW,225,4.6,4.6,56,0.00,CLR,,0.00,WeatherDisplay:10.37,2013-03-28 23:00:00,
2013-03-28 18:05:00,66.6,49.9,28.68,South,180,4.6,4.6,55,0.00,CLR,,0.00,WeatherDisplay:10.37,2013-03-28 23:05:00,
2013-03-28 18:10:00,66.6,50.9,28.68,SSE,158,4.7,4.7,57,0.00,CLR,,0.00,WeatherDisplay:10.37,2013-03-28 23:10:00,
2013-03-28 18:15:00,66.4,49.7,28.69,South,180,4.6,4.6,55,0.00,CLR,,0.00,WeatherDisplay:10.37,2013-03-28 23:15:00,
2013-03-28 18:20:00,65.8,50.1,28.69,SSW,202,5.8,5.8,57,0.00,CLR,,0.00,WeatherDisplay:10.37,2013-03-28 23:20:00,
2013-03-28 18:25:00,65.1,50.0,28.69,South,180,4.6,4.6,58,0.00,CLR,,0.00,WeatherDisplay:10.37,2013-03-28 23:25:00,
2013-03-28 18:30:00,64.9,49.8,28.68,ESE,112,4.6,4.6,58,0.00,CLR,,0.00,WeatherDisplay:10.37,2013-03-28 23:30:00,
2013-03-28 18:35:00,64.8,50.1,28.68,NNE,22,4.2,4.2,59,0.00,CLR,,0.00,WeatherDisplay:10.37,2013-03-28 23:35:00,
2013-03-28 18:40:00,64.6,49.9,28.68,ENE,68,4.6,4.6,59,0.00,CLR,,0.00,WeatherDisplay:10.37,2013-03-28 23:40:00,
2013-03-28 18:45:00,64.0,50.3,28.68,SW,225,3.5,3.5,61,0.00,CLR,,0.00,WeatherDisplay:10.37,2013-03-28 23:45:00,
2013-03-28 18:50:00,63.9,49.7,28.68,SW,225,4.6,4.7,60,0.00,CLR,,0.00,WeatherDisplay:10.37,2013-03-28 23:50:00,
2013-03-28 18:55:00,63.5,49.8,28.68,West,270,3.7,3.7,61,0.00,CLR,,0.00,WeatherDisplay:10.37,2013-03-28 23:55:00,
2013-03-28 19:00:00,63.5,49.8,28.68,WSW,248,2.7,2.7,61,0.00,CLR,,0.00,WeatherDisplay:10.37,2013-03-29 00:00:00,
2013-03-28 19:05:00,63.0,50.2,28.68,WSW,248,3.5,3.5,63,0.00,CLR,,0.00,WeatherDisplay:10.37,2013-03-29 00:05:00,
2013-03-28 19:10:00,62.8,49.6,28.68,West,270,3.5,3.5,62,0.00,CLR,,0.00,WeatherDisplay:10.37,2013-03-29 00:10:00,
2013-03-28 19:15:00,62.4,50.1,28.68,SW,225,3.5,3.5,64,0.00,CLR,,0.00,WeatherDisplay:10.37,2013-03-29 00:15:00,
2013-03-28 19:20:00,62.1,49.8,28.68,SSW,202,2.7,2.7,64,0.00,CLR,,0.00,WeatherDisplay:10.37,2013-03-29 00:20:00,
2013-03-28 19:25:00,61.7,49.8,28.68,West,270,2.3,2.3,65,0.00,CLR,,0.00,WeatherDisplay:10.37,2013-03-29 00:25:00,
2013-03-28 19:30:00,61.3,49.4,28.69,WSW,248,3.5,3.5,65,0.00,CLR,,0.00,WeatherDisplay:10.37,2013-03-29 00:30:00,
2013-03-28 19:35:00,61.2,49.7,28.69,West,270,3.2,3.2,66,0.00,CLR,,0.00,WeatherDisplay:10.37,2013-03-29 00:35:00,
2013-03-28 19:40:00,60.8,49.8,28.68,West,270,3.5,3.5,67,0.00,CLR,,0.00,WeatherDisplay:10.37,2013-03-29 00:40:00,
2013-03-28 19:45:00,60.6,49.6,28.68,SSW,202,3.5,3.5,67,0.00,CLR,,0.00,WeatherDisplay:10.37,2013-03-29 00:45:00,
2013-03-28 19:50:00,60.4,49.4,28.68,SW,225,2.3,2.3,67,0.00,CLR,,0.00,WeatherDisplay:10.37,2013-03-29 00:50:00,
2013-03-28 19:55:00,60.1,49.5,28.68,WSW,248,2.2,2.2,68,0.00,CLR,,0.00,WeatherDisplay:10.37,2013-03-29 00:55:00,
2013-03-28 20:00:00,59.7,49.5,28.68,WSW,248,2.3,2.3,69,0.00,CLR,,0.00,WeatherDisplay:10.37,2013-03-29 01:00:00,
2013-03-28 20:05:00,59.4,49.2,28.68,WSW,248,2.2,2.2,69,0.00,CLR,,0.00,WeatherDisplay:10.37,2013-03-29 01:05:00,
2013-03-28 20:10:00,59.2,49.0,28.68,SSW,202,1.2,1.3,69,0.00,CLR,,0.00,WeatherDisplay:10.37,2013-03-29 01:10:00,
2013-03-28 20:15:00,59.2,49.0,28.69,SSW,202,2.3,2.3,69,0.00,CLR,,0.00,WeatherDisplay:10.37,2013-03-29 01:15:00,
2013-03-28 20:20:00,59.0,49.2,28.69,SW,225,0.0,0.0,70,0.00,CLR,,0.00,WeatherDisplay:10.37,2013-03-29 01:20:00,
2013-03-28 20:25:00,58.8,49.0,28.69,SSW,202,1.2,1.2,70,0.00,CLR,,0.00,WeatherDisplay:10.37,2013-03-29 01:25:00,
2013-03-28 20:30:00,58.8,49.4,28.69,SW,225,1.2,0.0,71,0.00,CLR,,0.00,WeatherDisplay:10.37,2013-03-29 01:30:00,
2013-03-28 20:35:00,58.8,49.0,28.69,SW,225,1.2,1.2,70,0.00,CLR,,0.00,WeatherDisplay:10.37,2013-03-29 01:35:00,
2013-03-28 20:40:00,58.8,49.8,28.69,SW,225,0.0,0.0,72,0.00,CLR,,0.00,WeatherDisplay:10.37,2013-03-29 01:40:00,
2013-03-28 20:45:00,58.6,49.6,28.69,South,180,0.0,0.0,72,0.00,CLR,,0.00,WeatherDisplay:10.37,2013-03-29 01:45:00,
2013-03-28 20:50:00,58.6,49.6,28.70,South,180,0.0,0.0,72,0.00,CLR,,0.00,WeatherDisplay:10.37,2013-03-29 01:50:00,
2013-03-28 20:55:00,58.3,48.9,28.70,North,360,0.0,0.0,71,0.00,CLR,,0.00,WeatherDisplay:10.37,2013-03-29 01:55:00,
2013-03-28 21:00:00,58.1,48.7,28.70,ENE,68,0.0,0.0,71,0.00,CLR,,0.00,WeatherDisplay:10.37,2013-03-29 02:00:00,
2013-03-28 21:05:00,57.9,48.9,28.70,SW,225,0.0,0.0,72,0.00,CLR,,0.00,WeatherDisplay:10.37,2013-03-29 02:05:00,
2013-03-28 21:10:00,57.7,49.1,28.70,South,180,0.0,0.0,73,0.00,CLR,,0.00,WeatherDisplay:10.37,2013-03-29 02:10:00,
2013-03-28 21:15:00,57.6,49.7,28.70,WNW,292,0.0,0.0,75,0.00,CLR,,0.00,WeatherDisplay:10.37,2013-03-29 02:15:00,
2013-03-28 21:20:00,57.4,48.8,28.70,SSW,202,0.0,0.0,73,0.00,CLR,,0.00,WeatherDisplay:10.37,2013-03-29 02:20:00,
2013-03-28 21:25:00,57.0,48.4,28.70,WNW,292,0.0,0.0,73,0.00,CLR,,0.00,WeatherDisplay:10.37,2013-03-29 02:25:00,
2013-03-28 21:30:00,57.0,48.4,28.71,WSW,248,0.0,0.0,73,0.00,CLR,,0.00,WeatherDisplay:10.37,2013-03-29 02:30:00,
2013-03-28 21:35:00,57.0,48.4,28.71,SSW,202,0.0,0.0,73,0.00,CLR,,0.00,WeatherDisplay:10.37,2013-03-29 02:35:00,
2013-03-28 21:40:00,57.0,48.4,28.71,SW,225,0.0,0.0,73,0.00,CLR,,0.00,WeatherDisplay:10.37,2013-03-29 02:40:00,
2013-03-28 21:45:00,57.0,48.4,28.71,ESE,112,0.0,0.0,73,0.00,CLR,,0.00,WeatherDisplay:10.37,2013-03-29 02:45:00,
2013-03-28 21:50:00,57.0,48.8,28.72,SW,225,0.0,0.0,74,0.00,CLR,,0.00,WeatherDisplay:10.37,2013-03-29 02:50:00,
2013-03-28 21:55:00,56.8,48.6,28.72,SSW,202,0.0,0.0,74,0.00,CLR,,0.00,WeatherDisplay:10.37,2013-03-29 02:55:00,
2013-03-28 22:00:00,56.8,49.0,28.72,South,180,0.0,0.0,75,0.00,CLR,,0.00,WeatherDisplay:10.37,2013-03-29 03:00:00,
2013-03-28 22:05:00,56.8,49.3,28.72,SSW,202,0.0,0.0,76,0.00,CLR,,0.00,WeatherDisplay:10.37,2013-03-29 03:05:00,
2013-03-28 22:10:00,56.8,49.3,28.72,SSW,202,1.7,1.7,76,0.00,CLR,,0.00,WeatherDisplay:10.37,2013-03-29 03:10:00,
2013-03-28 22:15:00,56.8,49.3,28.73,SSW,202,0.0,0.0,76,0.00,CLR,,0.00,WeatherDisplay:10.37,2013-03-29 03:15:00,
2013-03-28 22:20:00,56.8,49.3,28.73,SSW,202,0.0,0.0,76,0.00,CLR,,0.00,WeatherDisplay:10.37,2013-03-29 03:20:00,
2013-03-28 22:25:00,56.7,49.2,28.73,SSW,202,0.0,0.0,76,0.00,CLR,,0.00,WeatherDisplay:10.37,2013-03-29 03:25:00,
2013-03-28 22:30:00,56.7,49.2,28.73,SSW,202,0.0,0.0,76,0.00,CLR,,0.00,WeatherDisplay:10.37,2013-03-29 03:30:00,
2013-03-28 22:35:00,56.7,49.2,28.73,North,360,0.0,0.0,76,0.00,CLR,,0.00,WeatherDisplay:10.37,2013-03-29 03:35:00,
2013-03-28 22:40:00,56.7,49.2,28.73,North,360,0.0,0.0,76,0.00,CLR,,0.00,WeatherDisplay:10.37,2013-03-29 03:40:00,
2013-03-28 22:45:00,56.5,49.0,28.73,South,180,0.0,0.0,76,0.00,CLR,,0.00,WeatherDisplay:10.37,2013-03-29 03:45:00,
2013-03-28 22:50:00,56.5,49.0,30.09,SSW,202,0.0,-999.0,76,-99.99,,,0.00,Acu-Link.com,2013-03-29 03:50:00,
2013-03-28 22:55:00,56.7,48.9,28.73,West,270,0.0,0.0,75,0.00,CLR,,0.00,WeatherDisplay:10.37,2013-03-29 03:55:00,
2013-03-28 23:00:00,56.7,48.9,28.73,SSW,202,0.0,0.0,75,0.00,CLR,,0.00,WeatherDisplay:10.37,2013-03-29 04:00:00,
2013-03-28 23:01:00,56.7,48.9,28.73,SSW,202,0.0,0.0,75,0.00,CLR,,0.00,WeatherDisplay:10.37,2013-03-29 04:01:00,
2013-03-28 23:06:00,57.0,49.2,28.73,SSW,202,0.0,0.0,75,0.00,CLR,,0.00,WeatherDisplay:10.37,2013-03-29 04:06:00,
2013-03-28 23:11:00,57.2,49.3,28.73,SSW,202,2.3,2.3,75,0.00,CLR,,0.00,WeatherDisplay:10.37,2013-03-29 04:11:00,
2013-03-28 23:16:00,57.6,49.4,28.73,South,180,2.3,2.3,74,0.00,CLR,,0.00,WeatherDisplay:10.37,2013-03-29 04:16:00,
2013-03-28 23:21:00,57.9,49.3,28.73,SW,225,2.3,2.3,73,0.00,CLR,,0.00,WeatherDisplay:10.37,2013-03-29 04:21:00,
2013-03-28 23:27:00,57.7,49.5,28.72,SSW,202,2.3,2.3,74,0.00,CLR,,0.00,WeatherDisplay:10.37,2013-03-29 04:27:00,
2013-03-28 23:32:00,57.6,49.4,28.72,SSW,202,2.3,2.3,74,0.00,CLR,,0.00,WeatherDisplay:10.37,2013-03-29 04:32:00,
2013-03-28 23:37:00,57.6,49.4,28.72,ESE,112,2.3,2.3,74,0.00,CLR,,0.00,WeatherDisplay:10.37,2013-03-29 04:37:00,
2013-03-28 23:42:00,57.6,49.4,28.72,South,180,2.3,2.3,74,0.00,CLR,,0.00,WeatherDisplay:10.37,2013-03-29 04:42:00,
2013-03-28 23:47:00,57.0,49.5,28.72,South,180,2.3,2.3,76,0.00,CLR,,0.00,WeatherDisplay:10.37,2013-03-29 04:47:00,
2013-03-28 23:52:00,56.8,49.3,28.72,SSW,202,1.7,1.7,76,0.00,CLR,,0.00,WeatherDisplay:10.37,2013-03-29 04:52:00,
2013-03-28 23:57:00,56.5,49.4,28.72,SSW,202,1.2,1.2,77,0.00,CLR,,0.00,WeatherDisplay:10.37,2013-03-29 04:57:00,